Bookmark and Share
Track history (hours):
 

Overseas Long Beach

More information available from US FCC via Universal Licensing System and Coast Guard Vessel Documentation Center.

Last reported at 2014-Apr-23 12:26 UTC. Time now 2014-Apr-23 12:58 UTC.
Position N 26°06' W 080°07'.

Length 181 m; draft 11 m.

Type: Tanker. MMSI: 367703000.

NotesDate/timePositionNaut miles runAvg speedWind from/ knotsBaromVisibWave heightAir tempDewpointWater temp
2014-Apr-23 12:26N 26°06' W 080°07'0 0.0
2014-Apr-23 11:26N 26°06' W 080°07'0 0.0
2014-Apr-23 10:29N 26°06' W 080°07'0 0.0
2014-Apr-23 09:29N 26°06' W 080°07'0 0.0
2014-Apr-23 08:29N 26°06' W 080°07'0 0.0
2014-Apr-23 07:29N 26°06' W 080°07'0 0.0
2014-Apr-23 06:32N 26°06' W 080°07'0 0.0
2014-Apr-23 05:32N 26°06' W 080°07'0 0.0
2014-Apr-23 04:32N 26°06' W 080°07'0 0.0
2014-Apr-23 03:32N 26°06' W 080°07'0 0.0
2014-Apr-23 02:32N 26°06' W 080°07'0 0.0
2014-Apr-23 01:23N 26°06' W 080°07'0 0.0
2014-Apr-23 00:23N 26°06' W 080°07'0 0.0
2014-Apr-22 23:26N 26°06' W 080°07'0 0.0
2014-Apr-22 22:26N 26°06' W 080°07'0 0.0
2014-Apr-22 21:26N 26°06' W 080°07'0 0.0
2014-Apr-22 20:29N 26°06' W 080°07'0 0.0
2014-Apr-22 19:29N 26°06' W 080°07'1 0.9
2014-Apr-22 18:33N 26°06' W 080°06'3 2.9
2014-Apr-22 17:33N 26°07' W 080°04'1 0.8
2014-Apr-22 16:33N 26°07' W 080°05'0 0.0
2014-Apr-22 15:33N 26°07' W 080°05'0 0.0
2014-Apr-22 14:33N 26°07' W 080°05'0 0.0
2014-Apr-22 13:33N 26°07' W 080°05'0 0.0
2014-Apr-22 12:24N 26°07' W 080°05'0 0.0
2014-Apr-22 11:27N 26°07' W 080°05'0 0.0
2014-Apr-22 10:27N 26°07' W 080°05'0 0.0
2014-Apr-22 09:27N 26°07' W 080°04'0 0.0
2014-Apr-22 08:30N 26°07' W 080°05'0 0.0
2014-Apr-22 07:30N 26°07' W 080°05'0 0.0
2014-Apr-22 06:30N 26°07' W 080°05'0 0.0
2014-Apr-22 05:33N 26°07' W 080°05'0 0.0
2014-Apr-22 04:33N 26°07' W 080°05'0 0.0
2014-Apr-22 03:33N 26°07' W 080°05'0 0.0
2014-Apr-22 02:33N 26°07' W 080°05'0 0.0
2014-Apr-22 01:33N 26°07' W 080°05'0 0.0
2014-Apr-22 00:33N 26°07' W 080°05'0 0.0
2014-Apr-21 23:33N 26°07' W 080°05'0 0.0
2014-Apr-21 22:24N 26°07' W 080°05'0 0.0
2014-Apr-21 21:27N 26°07' W 080°05'0 0.0
2014-Apr-21 20:27N 26°07' W 080°05'0 0.0
2014-Apr-21 19:27N 26°07' W 080°05'0 0.1
2014-Apr-21 18:30N 26°07' W 080°05'0 0.0
2014-Apr-21 17:30N 26°07' W 080°05'0 0.0
2014-Apr-21 16:30N 26°07' W 080°05'0 0.1
2014-Apr-21 15:33N 26°07' W 080°04'0 0.2
2014-Apr-21 14:33N 26°08' W 080°05'6 5.6
2014-Apr-21 13:33N 26°06' W 079°59'1212.1
2014-Apr-21 12:33N 25°56' W 079°52'1515.0
2014-Apr-21 11:33N 25°41' W 079°53'1815.2
2014-Apr-21 10:23N 25°23' W 079°58'41512.8
2014-Apr-20 02:00N 26°00' W 087°36'2813.8 020 / 141019.010.8 1.020.017.4
2014-Apr-20 00:00N 26°06' W 088°06'6412.8 330 / 161017.010.8 1.021.116.8
2014-Apr-19 19:00N 26°30' W 089°12'10014.3 010 / 171019.210.8 8.023.918.122.0
2014-Apr-19 12:00N 27°12' W 090°54'   040 / 201019.010.8 0.518.916.2

Dump ship's entire track history

sailing weather and tide predictions

Overseas Long Beach — WAAT — position and weather